This is the latest recevied weather packets stored in our database for station/object K1WJY. If no packets are shown the sender has not sent any weather packets the latest 10 day(s).
| Time | Temp. | Humidity | Pressure | Rain* | Wind** | Luminosity | Snow |
|---|---|---|---|---|---|---|---|
| 1787702475 | 19.44° C | 85% | 1014.7 hPa | 0 mm | - | 0 W/m² | - |
| 1787702174 | 19.44° C | 84% | 1014.7 hPa | 0 mm | - | 0 W/m² | - |
| 1787701870 | 20° C | 83% | 1014.6 hPa | 0 mm | - | 0 W/m² | - |
| 1787701566 | 20° C | 82% | 1014.8 hPa | 0 mm | - | 0 W/m² | - |
| 1787701261 | 20° C | 81% | 1014.5 hPa | 0 mm | - | 0 W/m² | - |
| 1787700957 | 20.56° C | 81% | 1014.3 hPa | 0 mm | - | 0 W/m² | - |
| 1787700652 | 20.56° C | 79% | 1014.4 hPa | 0 mm | - | 0 W/m² | - |
| 1787700348 | 20.56° C | 78% | 1014.3 hPa | 0 mm | - | 0 W/m² | - |
| 1787700043 | 21.11° C | 77% | 1014.3 hPa | 0 mm | - | 1 W/m² | - |
| 1787699739 | 21.11° C | 76% | 1014.3 hPa | 0 mm | - | 5 W/m² | - |
| 1787699434 | 21.11° C | 76% | 1014.2 hPa | 0 mm | - | 6 W/m² | - |
| 1787699130 | 21.67° C | 76% | 1014.2 hPa | 0 mm | - | 9 W/m² | - |
| 1787698826 | 21.67° C | 75% | 1014 hPa | 0 mm | - | 12 W/m² | - |
| 1787698521 | 22.22° C | 74% | 1014.1 hPa | 0 mm | - | 15 W/m² | - |
| 1787698218 | 22.22° C | 75% | 1014.1 hPa | 0 mm | - | 18 W/m² | - |
| 1787697913 | 22.22° C | 77% | 1014.1 hPa | 0 mm | - | 22 W/m² | - |
| 1787697607 | 22.78° C | 75% | 1013.9 hPa | 0 mm | - | 25 W/m² | - |
| 1787697304 | 22.78° C | 74% | 1013.8 hPa | 0 mm | - | 28 W/m² | - |
| 1787697004 | 23.33° C | 72% | 1013.8 hPa | 0 mm | - | 32 W/m² | - |
| 1787696700 | 23.33° C | 72% | 1013.6 hPa | 0 mm | - | 35 W/m² | - |
| 1787696395 | 23.89° C | 71% | 1013.6 hPa | 0 mm | - | 37 W/m² | - |
| 1787696091 | 23.89° C | 70% | 1013.7 hPa | 0 mm | - | 40 W/m² | - |
| 1787695789 | 23.89° C | 69% | 1013.5 hPa | 0 mm | - | 59 W/m² | - |
| 1787695486 | 24.44° C | 68% | 1013.4 hPa | 0 mm | - | 81 W/m² | - |
| 1787695181 | 24.44° C | 68% | 1013.8 hPa | 0 mm | - | 51 W/m² | - |
* Rain latest hour (hover to see other rain measurements)
** Current wind speed in m/s (hover to see current wind gust speed)